Laval-Entrammes Airport

Airport
ICAO code: 
LFOV
IATA Code: 
LVA
Summary
ICAO Region: 
EUR
Territory: 
Location: 
, Pays de la Loire
Serving: 
Laval
Elevation: 
330 ft
Coordinates: 
Aerial View: 
48° 1' 52.9" N, 0° 44' 34.75" W
Metar
Observation
LFOV 060500Z AUTO VRB03KT 9999 BKN027 BKN039 BKN170 05/03 Q1016
Station
Laval-Entrammes
Date/Time
2021-12-06 05:00:00
Wind speed
03 kts
Lowest cloud amount
broken clouds
Temperature
5°C
Dew point
3°C
Humidity
86%
QNH
1016 hPa
Weather condition
n/a

Runways

Designator Length Width Surface Rops
15/33 1530 30 ASP No/No
Airport map: 
Aerial View: 

SKYbrary Partners:

Safety knowledge contributed by: